CheckWX is a tool to help pilots better visualize weather data.  It is not intended as a substitute for an official pre-flight weather briefing.

10:08:57 UTC

KRIC TAF
Richmond International Airport
Richmond, Virginia, USA
KRIC 260540Z 2606/2706 VRB05KT P6SM SCT250

Jun-26@
06:00 UTC

Jun-26 @ 06:00 UTC

Jun-27@
06:00 UTC

Jun-27 @ 06:00 UTC

KRIC 260540Z 2606/2706 VRB05KT P6SM SCT250
Wind
  • Variable at 5 KTS
Cloud Levels
  • Scattered at 25,000' AGL